sensor_id;sensor_type;location;lat;lon;timestamp;P1;durP1;ratioP1;P2;durP2;ratioP2
56141;SDS011;42018;48.588;10.836;2022-08-02T00:01:09;1.83;;;0.90;;
56141;SDS011;42018;48.588;10.836;2022-08-02T00:03:55;1.52;;;0.90;;
56141;SDS011;42018;48.588;10.836;2022-08-02T00:06:40;1.10;;;0.80;;
56141;SDS011;42018;48.588;10.836;2022-08-02T00:09:26;1.73;;;1.00;;
56141;SDS011;42018;48.588;10.836;2022-08-02T00:12:11;1.08;;;0.77;;
56141;SDS011;42018;48.588;10.836;2022-08-02T00:14:57;1.55;;;1.00;;
56141;SDS011;42018;48.588;10.836;2022-08-02T00:17:42;1.55;;;1.00;;
56141;SDS011;42018;48.588;10.836;2022-08-02T00:20:28;1.90;;;0.80;;
56141;SDS011;42018;48.588;10.836;2022-08-02T00:23:14;1.00;;;0.80;;
56141;SDS011;42018;48.588;10.836;2022-08-02T00:25:59;1.02;;;0.77;;
56141;SDS011;42018;48.588;10.836;2022-08-02T00:28:45;1.45;;;0.90;;
56141;SDS011;42018;48.588;10.836;2022-08-02T00:31:30;2.00;;;1.02;;
56141;SDS011;42018;48.588;10.836;2022-08-02T00:34:16;2.10;;;0.98;;
56141;SDS011;42018;48.588;10.836;2022-08-02T00:37:01;2.33;;;1.02;;
56141;SDS011;42018;48.588;10.836;2022-08-02T00:39:46;2.75;;;1.00;;
56141;SDS011;42018;48.588;10.836;2022-08-02T00:42:32;2.85;;;1.08;;
56141;SDS011;42018;48.588;10.836;2022-08-02T00:45:17;2.63;;;0.90;;
56141;SDS011;42018;48.588;10.836;2022-08-02T00:48:03;2.15;;;1.20;;
56141;SDS011;42018;48.588;10.836;2022-08-02T00:50:50;2.15;;;1.10;;
56141;SDS011;42018;48.588;10.836;2022-08-02T00:53:35;3.20;;;1.20;;
56141;SDS011;42018;48.588;10.836;2022-08-02T00:56:21;2.65;;;1.10;;
56141;SDS011;42018;48.588;10.836;2022-08-02T00:59:06;4.88;;;1.13;;
56141;SDS011;42018;48.588;10.836;2022-08-02T01:01:52;1.77;;;0.90;;
56141;SDS011;42018;48.588;10.836;2022-08-02T01:04:39;1.65;;;1.00;;
56141;SDS011;42018;48.588;10.836;2022-08-02T01:07:25;1.80;;;0.90;;
56141;SDS011;42018;48.588;10.836;2022-08-02T01:10:11;1.33;;;0.90;;
56141;SDS011;42018;48.588;10.836;2022-08-02T01:12:57;1.38;;;0.88;;
56141;SDS011;42018;48.588;10.836;2022-08-02T01:15:44;2.97;;;1.00;;
56141;SDS011;42018;48.588;10.836;2022-08-02T01:18:35;1.80;;;0.90;;
56141;SDS011;42018;48.588;10.836;2022-08-02T01:24:39;2.67;;;0.90;;
56141;SDS011;42018;48.588;10.836;2022-08-02T01:30:24;3.05;;;1.08;;
56141;SDS011;42018;48.588;10.836;2022-08-02T01:33:11;2.47;;;1.08;;
56141;SDS011;42018;48.588;10.836;2022-08-02T01:36:02;3.03;;;1.08;;
56141;SDS011;42018;48.588;10.836;2022-08-02T01:38:52;1.73;;;1.10;;
56141;SDS011;42018;48.588;10.836;2022-08-02T01:41:38;2.60;;;1.20;;
56141;SDS011;42018;48.588;10.836;2022-08-02T01:44:25;3.22;;;1.17;;
56141;SDS011;42018;48.588;10.836;2022-08-02T01:47:14;1.80;;;1.08;;
56141;SDS011;42018;48.588;10.836;2022-08-02T01:50:04;2.72;;;1.20;;
56141;SDS011;42018;48.588;10.836;2022-08-02T01:52:55;2.47;;;1.10;;
56141;SDS011;42018;48.588;10.836;2022-08-02T01:55:42;3.90;;;1.30;;
56141;SDS011;42018;48.588;10.836;2022-08-02T01:58:30;4.60;;;1.23;;
56141;SDS011;42018;48.588;10.836;2022-08-02T02:01:19;2.78;;;1.20;;
56141;SDS011;42018;48.588;10.836;2022-08-02T02:04:06;2.72;;;1.20;;
56141;SDS011;42018;48.588;10.836;2022-08-02T02:06:54;3.17;;;1.27;;
56141;SDS011;42018;48.588;10.836;2022-08-02T02:09:41;2.22;;;1.20;;
56141;SDS011;42018;48.588;10.836;2022-08-02T02:12:28;4.57;;;1.40;;
56141;SDS011;42018;48.588;10.836;2022-08-02T02:15:17;2.38;;;1.20;;
56141;SDS011;42018;48.588;10.836;2022-08-02T02:18:07;2.13;;;1.10;;
56141;SDS011;42018;48.588;10.836;2022-08-02T02:20:55;1.85;;;1.10;;
56141;SDS011;42018;48.588;10.836;2022-08-02T02:23:41;3.38;;;1.15;;
56141;SDS011;42018;48.588;10.836;2022-08-02T02:26:27;2.25;;;1.10;;
56141;SDS011;42018;48.588;10.836;2022-08-02T02:29:14;3.10;;;1.20;;
56141;SDS011;42018;48.588;10.836;2022-08-02T02:32:02;1.98;;;1.17;;
56141;SDS011;42018;48.588;10.836;2022-08-02T02:34:50;2.20;;;1.15;;
56141;SDS011;42018;48.588;10.836;2022-08-02T02:37:37;2.03;;;1.02;;
56141;SDS011;42018;48.588;10.836;2022-08-02T02:40:23;1.90;;;1.10;;
56141;SDS011;42018;48.588;10.836;2022-08-02T02:43:11;2.05;;;1.08;;
56141;SDS011;42018;48.588;10.836;2022-08-02T02:45:57;3.45;;;1.30;;
56141;SDS011;42018;48.588;10.836;2022-08-02T02:48:44;2.35;;;1.20;;
56141;SDS011;42018;48.588;10.836;2022-08-02T02:51:30;2.05;;;1.20;;
56141;SDS011;42018;48.588;10.836;2022-08-02T02:54:16;2.65;;;1.27;;
56141;SDS011;42018;48.588;10.836;2022-08-02T02:57:03;1.98;;;1.02;;
56141;SDS011;42018;48.588;10.836;2022-08-02T02:59:50;2.97;;;1.30;;
56141;SDS011;42018;48.588;10.836;2022-08-02T03:02:38;1.80;;;1.10;;
56141;SDS011;42018;48.588;10.836;2022-08-02T03:05:24;2.00;;;1.00;;
56141;SDS011;42018;48.588;10.836;2022-08-02T03:08:09;2.95;;;1.10;;
56141;SDS011;42018;48.588;10.836;2022-08-02T03:10:55;3.17;;;1.20;;
56141;SDS011;42018;48.588;10.836;2022-08-02T03:13:41;2.63;;;1.10;;
56141;SDS011;42018;48.588;10.836;2022-08-02T03:16:27;1.98;;;1.20;;
56141;SDS011;42018;48.588;10.836;2022-08-02T03:19:13;3.05;;;1.10;;
56141;SDS011;42018;48.588;10.836;2022-08-02T03:22:00;2.20;;;1.00;;
56141;SDS011;42018;48.588;10.836;2022-08-02T03:24:45;2.15;;;1.10;;
56141;SDS011;42018;48.588;10.836;2022-08-02T03:27:30;3.42;;;1.40;;
56141;SDS011;42018;48.588;10.836;2022-08-02T03:30:16;2.53;;;1.20;;
56141;SDS011;42018;48.588;10.836;2022-08-02T03:33:04;3.53;;;1.30;;
56141;SDS011;42018;48.588;10.836;2022-08-02T03:35:54;2.38;;;1.10;;
56141;SDS011;42018;48.588;10.836;2022-08-02T03:38:42;1.85;;;0.90;;
56141;SDS011;42018;48.588;10.836;2022-08-02T03:41:29;1.80;;;1.17;;
56141;SDS011;42018;48.588;10.836;2022-08-02T03:44:15;3.05;;;1.10;;
56141;SDS011;42018;48.588;10.836;2022-08-02T03:47:01;3.00;;;1.23;;
56141;SDS011;42018;48.588;10.836;2022-08-02T03:49:47;1.77;;;1.00;;
56141;SDS011;42018;48.588;10.836;2022-08-02T03:52:33;2.00;;;1.05;;
56141;SDS011;42018;48.588;10.836;2022-08-02T03:55:20;1.88;;;1.05;;
56141;SDS011;42018;48.588;10.836;2022-08-02T03:58:05;2.88;;;1.20;;
56141;SDS011;42018;48.588;10.836;2022-08-02T04:00:52;3.10;;;1.17;;
56141;SDS011;42018;48.588;10.836;2022-08-02T04:03:38;2.10;;;1.00;;
56141;SDS011;42018;48.588;10.836;2022-08-02T04:06:24;2.40;;;1.20;;
56141;SDS011;42018;48.588;10.836;2022-08-02T04:09:09;2.45;;;1.15;;
56141;SDS011;42018;48.588;10.836;2022-08-02T04:11:55;3.72;;;1.30;;
56141;SDS011;42018;48.588;10.836;2022-08-02T04:14:40;2.97;;;1.30;;
56141;SDS011;42018;48.588;10.836;2022-08-02T04:17:26;3.00;;;1.10;;
56141;SDS011;42018;48.588;10.836;2022-08-02T04:20:23;2.40;;;1.10;;
56141;SDS011;42018;48.588;10.836;2022-08-02T04:23:12;4.03;;;1.20;;
56141;SDS011;42018;48.588;10.836;2022-08-02T04:25:59;2.20;;;1.08;;
56141;SDS011;42018;48.588;10.836;2022-08-02T04:28:47;1.85;;;1.10;;
56141;SDS011;42018;48.588;10.836;2022-08-02T04:31:35;2.10;;;1.05;;
56141;SDS011;42018;48.588;10.836;2022-08-02T04:34:21;1.83;;;1.00;;
56141;SDS011;42018;48.588;10.836;2022-08-02T04:37:07;2.95;;;1.00;;
56141;SDS011;42018;48.588;10.836;2022-08-02T04:39:52;2.50;;;1.00;;
56141;SDS011;42018;48.588;10.836;2022-08-02T04:42:38;4.03;;;1.20;;
56141;SDS011;42018;48.588;10.836;2022-08-02T04:45:24;2.80;;;1.00;;
56141;SDS011;42018;48.588;10.836;2022-08-02T04:48:09;2.17;;;1.08;;
56141;SDS011;42018;48.588;10.836;2022-08-02T04:50:55;1.67;;;1.02;;
56141;SDS011;42018;48.588;10.836;2022-08-02T04:53:41;3.47;;;1.00;;
56141;SDS011;42018;48.588;10.836;2022-08-02T04:56:26;1.67;;;1.00;;
56141;SDS011;42018;48.588;10.836;2022-08-02T04:59:12;2.90;;;1.17;;
56141;SDS011;42018;48.588;10.836;2022-08-02T05:01:57;2.65;;;1.23;;
56141;SDS011;42018;48.588;10.836;2022-08-02T05:04:42;2.97;;;1.20;;
56141;SDS011;42018;48.588;10.836;2022-08-02T05:07:28;2.95;;;1.30;;
56141;SDS011;42018;48.588;10.836;2022-08-02T05:10:13;2.75;;;1.30;;
56141;SDS011;42018;48.588;10.836;2022-08-02T05:12:59;2.45;;;1.20;;
56141;SDS011;42018;48.588;10.836;2022-08-02T05:15:47;2.13;;;1.20;;
56141;SDS011;42018;48.588;10.836;2022-08-02T05:18:33;3.60;;;1.50;;
56141;SDS011;42018;48.588;10.836;2022-08-02T05:21:19;2.47;;;1.40;;
56141;SDS011;42018;48.588;10.836;2022-08-02T05:24:04;3.90;;;1.20;;
56141;SDS011;42018;48.588;10.836;2022-08-02T05:26:50;3.08;;;1.40;;
56141;SDS011;42018;48.588;10.836;2022-08-02T05:29:36;3.08;;;1.30;;
56141;SDS011;42018;48.588;10.836;2022-08-02T05:32:21;3.17;;;1.40;;
56141;SDS011;42018;48.588;10.836;2022-08-02T05:35:06;2.78;;;1.40;;
56141;SDS011;42018;48.588;10.836;2022-08-02T05:37:52;2.97;;;1.33;;
56141;SDS011;42018;48.588;10.836;2022-08-02T05:40:37;2.38;;;1.33;;
56141;SDS011;42018;48.588;10.836;2022-08-02T05:43:23;2.75;;;1.48;;
56141;SDS011;42018;48.588;10.836;2022-08-02T05:46:08;2.92;;;1.70;;
56141;SDS011;42018;48.588;10.836;2022-08-02T05:48:56;3.53;;;1.38;;
56141;SDS011;42018;48.588;10.836;2022-08-02T05:51:44;2.35;;;1.40;;
56141;SDS011;42018;48.588;10.836;2022-08-02T05:54:50;3.88;;;1.80;;
56141;SDS011;42018;48.588;10.836;2022-08-02T05:57:48;3.17;;;1.70;;
56141;SDS011;42018;48.588;10.836;2022-08-02T06:00:49;3.72;;;1.90;;
56141;SDS011;42018;48.588;10.836;2022-08-02T06:03:46;2.97;;;1.80;;
56141;SDS011;42018;48.588;10.836;2022-08-02T06:06:42;3.75;;;1.80;;
56141;SDS011;42018;48.588;10.836;2022-08-02T06:09:28;4.85;;;1.80;;
56141;SDS011;42018;48.588;10.836;2022-08-02T06:12:15;3.35;;;1.90;;
56141;SDS011;42018;48.588;10.836;2022-08-02T06:15:04;4.22;;;1.90;;
56141;SDS011;42018;48.588;10.836;2022-08-02T06:17:50;4.35;;;2.10;;
56141;SDS011;42018;48.588;10.836;2022-08-02T06:20:36;4.22;;;2.03;;
56141;SDS011;42018;48.588;10.836;2022-08-02T06:23:22;4.50;;;2.08;;
56141;SDS011;42018;48.588;10.836;2022-08-02T06:26:08;4.45;;;2.20;;
56141;SDS011;42018;48.588;10.836;2022-08-02T06:28:57;3.55;;;2.03;;
56141;SDS011;42018;48.588;10.836;2022-08-02T06:31:43;4.00;;;2.05;;
56141;SDS011;42018;48.588;10.836;2022-08-02T06:34:29;4.32;;;2.13;;
56141;SDS011;42018;48.588;10.836;2022-08-02T06:46:17;4.07;;;2.33;;
56141;SDS011;42018;48.588;10.836;2022-08-02T06:49:03;4.75;;;2.08;;
56141;SDS011;42018;48.588;10.836;2022-08-02T06:51:48;4.00;;;2.25;;
56141;SDS011;42018;48.588;10.836;2022-08-02T06:54:34;3.70;;;2.10;;
56141;SDS011;42018;48.588;10.836;2022-08-02T06:57:20;4.88;;;2.20;;
56141;SDS011;42018;48.588;10.836;2022-08-02T07:00:05;4.15;;;2.20;;
56141;SDS011;42018;48.588;10.836;2022-08-02T07:02:53;4.07;;;2.08;;
56141;SDS011;42018;48.588;10.836;2022-08-02T07:05:39;4.32;;;2.30;;
56141;SDS011;42018;48.588;10.836;2022-08-02T07:08:26;4.38;;;2.22;;
56141;SDS011;42018;48.588;10.836;2022-08-02T07:11:11;5.22;;;2.00;;
56141;SDS011;42018;48.588;10.836;2022-08-02T07:13:57;3.92;;;2.30;;
56141;SDS011;42018;48.588;10.836;2022-08-02T07:16:42;3.72;;;2.08;;
56141;SDS011;42018;48.588;10.836;2022-08-02T07:19:27;3.28;;;1.75;;
56141;SDS011;42018;48.588;10.836;2022-08-02T07:22:13;4.60;;;1.80;;
56141;SDS011;42018;48.588;10.836;2022-08-02T07:24:58;4.43;;;1.95;;
56141;SDS011;42018;48.588;10.836;2022-08-02T07:27:44;3.22;;;1.83;;
56141;SDS011;42018;48.588;10.836;2022-08-02T07:30:30;3.28;;;1.90;;
56141;SDS011;42018;48.588;10.836;2022-08-02T07:33:16;3.28;;;1.90;;
56141;SDS011;42018;48.588;10.836;2022-08-02T07:36:02;3.30;;;1.70;;
56141;SDS011;42018;48.588;10.836;2022-08-02T07:38:47;3.30;;;1.65;;
56141;SDS011;42018;48.588;10.836;2022-08-02T07:41:34;2.60;;;1.52;;
56141;SDS011;42018;48.588;10.836;2022-08-02T07:44:20;3.13;;;1.55;;
56141;SDS011;42018;48.588;10.836;2022-08-02T07:47:06;2.83;;;1.60;;
56141;SDS011;42018;48.588;10.836;2022-08-02T07:49:51;3.15;;;1.70;;
56141;SDS011;42018;48.588;10.836;2022-08-02T07:52:37;4.05;;;1.63;;
56141;SDS011;42018;48.588;10.836;2022-08-02T07:55:24;3.33;;;1.70;;
56141;SDS011;42018;48.588;10.836;2022-08-02T07:58:10;3.30;;;1.58;;
56141;SDS011;42018;48.588;10.836;2022-08-02T08:00:55;2.88;;;1.50;;
56141;SDS011;42018;48.588;10.836;2022-08-02T08:03:41;2.03;;;1.23;;
56141;SDS011;42018;48.588;10.836;2022-08-02T08:06:26;3.20;;;1.38;;
56141;SDS011;42018;48.588;10.836;2022-08-02T08:09:11;3.05;;;1.58;;
56141;SDS011;42018;48.588;10.836;2022-08-02T08:11:57;2.85;;;1.60;;
56141;SDS011;42018;48.588;10.836;2022-08-02T08:14:42;2.78;;;1.50;;
56141;SDS011;42018;48.588;10.836;2022-08-02T08:17:28;3.25;;;1.50;;
56141;SDS011;42018;48.588;10.836;2022-08-02T08:20:13;3.95;;;1.88;;
56141;SDS011;42018;48.588;10.836;2022-08-02T08:22:59;2.75;;;1.63;;
56141;SDS011;42018;48.588;10.836;2022-08-02T08:25:44;2.65;;;1.40;;
56141;SDS011;42018;48.588;10.836;2022-08-02T08:28:29;3.67;;;1.80;;
56141;SDS011;42018;48.588;10.836;2022-08-02T08:31:15;3.97;;;1.73;;
56141;SDS011;42018;48.588;10.836;2022-08-02T08:34:00;2.85;;;1.50;;
56141;SDS011;42018;48.588;10.836;2022-08-02T08:36:46;3.85;;;1.50;;
56141;SDS011;42018;48.588;10.836;2022-08-02T08:39:31;3.03;;;1.48;;
56141;SDS011;42018;48.588;10.836;2022-08-02T08:42:17;2.28;;;1.30;;
56141;SDS011;42018;48.588;10.836;2022-08-02T08:45:02;3.10;;;1.45;;
56141;SDS011;42018;48.588;10.836;2022-08-02T08:48:06;3.03;;;1.40;;
56141;SDS011;42018;48.588;10.836;2022-08-02T08:51:06;2.83;;;1.30;;
56141;SDS011;42018;48.588;10.836;2022-08-02T08:53:54;2.50;;;1.40;;
56141;SDS011;42018;48.588;10.836;2022-08-02T08:56:43;1.98;;;1.25;;
56141;SDS011;42018;48.588;10.836;2022-08-02T08:59:29;2.40;;;1.20;;
56141;SDS011;42018;48.588;10.836;2022-08-02T09:02:14;3.03;;;1.33;;
56141;SDS011;42018;48.588;10.836;2022-08-02T09:05:00;2.50;;;1.30;;
56141;SDS011;42018;48.588;10.836;2022-08-02T09:07:47;4.30;;;1.40;;
56141;SDS011;42018;48.588;10.836;2022-08-02T09:13:25;3.20;;;1.27;;
56141;SDS011;42018;48.588;10.836;2022-08-02T09:16:15;2.85;;;1.30;;
56141;SDS011;42018;48.588;10.836;2022-08-02T09:19:18;3.83;;;1.42;;
56141;SDS011;42018;48.588;10.836;2022-08-02T09:22:11;1.55;;;1.00;;
56141;SDS011;42018;48.588;10.836;2022-08-02T09:24:58;1.80;;;1.08;;
56141;SDS011;42018;48.588;10.836;2022-08-02T09:27:43;2.28;;;1.10;;
56141;SDS011;42018;48.588;10.836;2022-08-02T09:30:32;3.10;;;1.10;;
56141;SDS011;42018;48.588;10.836;2022-08-02T09:33:26;1.92;;;1.00;;
56141;SDS011;42018;48.588;10.836;2022-08-02T09:36:13;1.20;;;0.70;;
56141;SDS011;42018;48.588;10.836;2022-08-02T09:39:00;1.50;;;0.98;;
56141;SDS011;42018;48.588;10.836;2022-08-02T09:41:48;1.23;;;0.82;;
56141;SDS011;42018;48.588;10.836;2022-08-02T09:44:34;2.40;;;1.10;;
56141;SDS011;42018;48.588;10.836;2022-08-02T09:47:19;2.53;;;1.02;;
56141;SDS011;42018;48.588;10.836;2022-08-02T09:50:04;2.22;;;0.90;;
56141;SDS011;42018;48.588;10.836;2022-08-02T09:52:50;0.93;;;0.77;;
56141;SDS011;42018;48.588;10.836;2022-08-02T09:55:39;1.95;;;0.77;;
56141;SDS011;42018;48.588;10.836;2022-08-02T09:58:25;1.73;;;0.95;;
56141;SDS011;42018;48.588;10.836;2022-08-02T10:01:11;1.27;;;0.88;;
56141;SDS011;42018;48.588;10.836;2022-08-02T10:03:58;1.08;;;0.80;;
56141;SDS011;42018;48.588;10.836;2022-08-02T10:06:45;1.60;;;1.02;;
56141;SDS011;42018;48.588;10.836;2022-08-02T10:09:31;2.00;;;1.00;;
56141;SDS011;42018;48.588;10.836;2022-08-02T10:12:18;1.63;;;0.90;;
56141;SDS011;42018;48.588;10.836;2022-08-02T10:15:04;1.70;;;0.80;;
56141;SDS011;42018;48.588;10.836;2022-08-02T10:17:50;1.27;;;0.77;;
56141;SDS011;42018;48.588;10.836;2022-08-02T10:20:39;0.98;;;0.60;;
56141;SDS011;42018;48.588;10.836;2022-08-02T10:23:28;1.20;;;0.80;;
56141;SDS011;42018;48.588;10.836;2022-08-02T10:26:18;1.08;;;0.82;;
56141;SDS011;42018;48.588;10.836;2022-08-02T10:29:04;0.95;;;0.70;;
56141;SDS011;42018;48.588;10.836;2022-08-02T10:37:49;0.60;;;0.60;;
56141;SDS011;42018;48.588;10.836;2022-08-02T10:40:44;2.80;;;1.05;;
56141;SDS011;42018;48.588;10.836;2022-08-02T10:57:39;1.90;;;0.80;;
56141;SDS011;42018;48.588;10.836;2022-08-02T11:00:25;1.38;;;0.70;;
56141;SDS011;42018;48.588;10.836;2022-08-02T11:06:12;0.70;;;0.55;;
56141;SDS011;42018;48.588;10.836;2022-08-02T11:15:04;2.85;;;0.80;;
56141;SDS011;42018;48.588;10.836;2022-08-02T11:17:50;2.80;;;0.70;;
56141;SDS011;42018;48.588;10.836;2022-08-02T11:20:37;0.50;;;0.50;;
56141;SDS011;42018;48.588;10.836;2022-08-02T11:29:15;1.88;;;0.60;;
56141;SDS011;42018;48.588;10.836;2022-08-02T11:32:02;1.30;;;0.80;;
56141;SDS011;42018;48.588;10.836;2022-08-02T11:34:52;1.85;;;0.50;;
56141;SDS011;42018;48.588;10.836;2022-08-02T11:37:39;0.70;;;0.50;;
56141;SDS011;42018;48.588;10.836;2022-08-02T11:40:26;1.42;;;0.70;;
56141;SDS011;42018;48.588;10.836;2022-08-02T11:43:22;1.58;;;0.52;;
56141;SDS011;42018;48.588;10.836;2022-08-02T11:46:11;1.77;;;0.50;;
56141;SDS011;42018;48.588;10.836;2022-08-02T11:49:09;1.30;;;0.60;;
56141;SDS011;42018;48.588;10.836;2022-08-02T11:51:58;1.15;;;0.73;;
56141;SDS011;42018;48.588;10.836;2022-08-02T11:54:49;0.50;;;0.50;;
56141;SDS011;42018;48.588;10.836;2022-08-02T11:57:34;1.42;;;0.88;;
56141;SDS011;42018;48.588;10.836;2022-08-02T12:00:20;1.35;;;0.60;;
56141;SDS011;42018;48.588;10.836;2022-08-02T12:03:06;1.05;;;0.60;;
56141;SDS011;42018;48.588;10.836;2022-08-02T12:05:52;0.85;;;0.40;;
56141;SDS011;42018;48.588;10.836;2022-08-02T12:08:37;1.95;;;0.60;;
56141;SDS011;42018;48.588;10.836;2022-08-02T12:11:22;0.75;;;0.50;;
56141;SDS011;42018;48.588;10.836;2022-08-02T12:14:08;1.13;;;0.60;;
56141;SDS011;42018;48.588;10.836;2022-08-02T12:16:54;0.65;;;0.60;;
56141;SDS011;42018;48.588;10.836;2022-08-02T12:19:58;0.85;;;0.60;;
56141;SDS011;42018;48.588;10.836;2022-08-02T12:22:44;1.17;;;0.50;;
56141;SDS011;42018;48.588;10.836;2022-08-02T12:25:29;0.50;;;0.47;;
56141;SDS011;42018;48.588;10.836;2022-08-02T12:31:01;1.35;;;0.60;;
56141;SDS011;42018;48.588;10.836;2022-08-02T12:33:50;1.02;;;0.60;;
56141;SDS011;42018;48.588;10.836;2022-08-02T12:36:39;0.68;;;0.45;;
56141;SDS011;42018;48.588;10.836;2022-08-02T12:39:41;1.73;;;0.60;;
56141;SDS011;42018;48.588;10.836;2022-08-02T12:42:29;1.65;;;0.70;;
56141;SDS011;42018;48.588;10.836;2022-08-02T12:45:50;1.83;;;0.70;;
56141;SDS011;42018;48.588;10.836;2022-08-02T12:48:38;0.88;;;0.47;;
56141;SDS011;42018;48.588;10.836;2022-08-02T12:51:35;0.93;;;0.52;;
56141;SDS011;42018;48.588;10.836;2022-08-02T12:54:24;1.00;;;0.60;;
56141;SDS011;42018;48.588;10.836;2022-08-02T12:57:12;0.80;;;0.50;;
56141;SDS011;42018;48.588;10.836;2022-08-02T12:59:59;0.40;;;0.40;;
56141;SDS011;42018;48.588;10.836;2022-08-02T13:02:44;0.90;;;0.45;;
56141;SDS011;42018;48.588;10.836;2022-08-02T13:05:29;0.90;;;0.50;;
56141;SDS011;42018;48.588;10.836;2022-08-02T13:08:15;1.33;;;0.50;;
56141;SDS011;42018;48.588;10.836;2022-08-02T13:11:01;0.70;;;0.50;;
56141;SDS011;42018;48.588;10.836;2022-08-02T13:13:46;0.85;;;0.40;;
56141;SDS011;42018;48.588;10.836;2022-08-02T13:16:32;0.88;;;0.60;;
56141;SDS011;42018;48.588;10.836;2022-08-02T13:19:18;2.58;;;0.77;;
56141;SDS011;42018;48.588;10.836;2022-08-02T13:22:04;0.47;;;0.47;;
56141;SDS011;42018;48.588;10.836;2022-08-02T13:24:49;1.58;;;0.50;;
56141;SDS011;42018;48.588;10.836;2022-08-02T13:27:36;0.50;;;0.45;;
56141;SDS011;42018;48.588;10.836;2022-08-02T13:30:22;1.10;;;0.60;;
56141;SDS011;42018;48.588;10.836;2022-08-02T13:33:07;0.50;;;0.43;;
56141;SDS011;42018;48.588;10.836;2022-08-02T13:35:53;1.10;;;0.50;;
56141;SDS011;42018;48.588;10.836;2022-08-02T13:38:38;0.30;;;0.30;;
56141;SDS011;42018;48.588;10.836;2022-08-02T13:41:23;0.82;;;0.47;;
56141;SDS011;42018;48.588;10.836;2022-08-02T13:44:09;0.45;;;0.45;;
56141;SDS011;42018;48.588;10.836;2022-08-02T13:46:54;1.25;;;0.50;;
56141;SDS011;42018;48.588;10.836;2022-08-02T13:49:40;1.15;;;0.55;;
56141;SDS011;42018;48.588;10.836;2022-08-02T13:52:25;0.50;;;0.50;;
56141;SDS011;42018;48.588;10.836;2022-08-02T13:55:11;0.77;;;0.40;;
56141;SDS011;42018;48.588;10.836;2022-08-02T13:57:57;0.50;;;0.50;;
56141;SDS011;42018;48.588;10.836;2022-08-02T14:00:43;0.60;;;0.50;;
56141;SDS011;42018;48.588;10.836;2022-08-02T14:03:28;0.70;;;0.45;;
56141;SDS011;42018;48.588;10.836;2022-08-02T14:06:14;0.50;;;0.50;;
56141;SDS011;42018;48.588;10.836;2022-08-02T14:08:59;0.85;;;0.45;;
56141;SDS011;42018;48.588;10.836;2022-08-02T14:11:45;0.43;;;0.38;;
56141;SDS011;42018;48.588;10.836;2022-08-02T14:14:31;0.93;;;0.43;;
56141;SDS011;42018;48.588;10.836;2022-08-02T14:17:16;1.23;;;0.60;;
56141;SDS011;42018;48.588;10.836;2022-08-02T14:20:02;1.02;;;0.60;;
56141;SDS011;42018;48.588;10.836;2022-08-02T14:22:48;1.05;;;0.45;;
56141;SDS011;42018;48.588;10.836;2022-08-02T14:25:33;1.00;;;0.57;;
56141;SDS011;42018;48.588;10.836;2022-08-02T14:28:19;1.02;;;0.40;;
56141;SDS011;42018;48.588;10.836;2022-08-02T14:31:04;0.60;;;0.60;;
56141;SDS011;42018;48.588;10.836;2022-08-02T14:33:50;0.55;;;0.50;;
56141;SDS011;42018;48.588;10.836;2022-08-02T14:36:36;1.27;;;0.60;;
56141;SDS011;42018;48.588;10.836;2022-08-02T14:39:22;1.30;;;0.60;;
56141;SDS011;42018;48.588;10.836;2022-08-02T14:42:07;0.50;;;0.50;;
56141;SDS011;42018;48.588;10.836;2022-08-02T14:44:53;0.40;;;0.40;;
56141;SDS011;42018;48.588;10.836;2022-08-02T14:47:38;7.80;;;0.88;;
56141;SDS011;42018;48.588;10.836;2022-08-02T14:50:24;1.25;;;0.80;;
56141;SDS011;42018;48.588;10.836;2022-08-02T14:53:09;0.63;;;0.40;;
56141;SDS011;42018;48.588;10.836;2022-08-02T14:55:54;1.38;;;0.50;;
56141;SDS011;42018;48.588;10.836;2022-08-02T14:58:40;0.82;;;0.60;;
56141;SDS011;42018;48.588;10.836;2022-08-02T15:01:25;0.70;;;0.40;;
56141;SDS011;42018;48.588;10.836;2022-08-02T15:04:11;0.40;;;0.40;;
56141;SDS011;42018;48.588;10.836;2022-08-02T15:06:57;0.80;;;0.50;;
56141;SDS011;42018;48.588;10.836;2022-08-02T15:09:43;1.20;;;0.50;;
56141;SDS011;42018;48.588;10.836;2022-08-02T15:12:28;0.93;;;0.47;;
56141;SDS011;42018;48.588;10.836;2022-08-02T15:15:14;0.85;;;0.50;;
56141;SDS011;42018;48.588;10.836;2022-08-02T15:17:59;0.98;;;0.63;;
56141;SDS011;42018;48.588;10.836;2022-08-02T15:20:44;0.93;;;0.50;;
56141;SDS011;42018;48.588;10.836;2022-08-02T15:23:32;1.17;;;0.40;;
56141;SDS011;42018;48.588;10.836;2022-08-02T15:26:18;1.20;;;0.60;;
56141;SDS011;42018;48.588;10.836;2022-08-02T15:29:04;1.35;;;0.50;;
56141;SDS011;42018;48.588;10.836;2022-08-02T15:31:50;1.15;;;0.60;;
56141;SDS011;42018;48.588;10.836;2022-08-02T15:34:35;1.55;;;0.85;;
56141;SDS011;42018;48.588;10.836;2022-08-02T15:37:21;0.98;;;0.40;;
56141;SDS011;42018;48.588;10.836;2022-08-02T15:40:06;0.82;;;0.50;;
56141;SDS011;42018;48.588;10.836;2022-08-02T15:42:52;1.20;;;0.63;;
56141;SDS011;42018;48.588;10.836;2022-08-02T15:45:37;1.27;;;0.80;;
56141;SDS011;42018;48.588;10.836;2022-08-02T15:48:24;1.45;;;0.70;;
56141;SDS011;42018;48.588;10.836;2022-08-02T15:51:09;0.65;;;0.40;;
56141;SDS011;42018;48.588;10.836;2022-08-02T15:53:55;1.45;;;0.40;;
56141;SDS011;42018;48.588;10.836;2022-08-02T15:56:40;0.55;;;0.50;;
56141;SDS011;42018;48.588;10.836;2022-08-02T15:59:25;1.38;;;0.47;;
56141;SDS011;42018;48.588;10.836;2022-08-02T16:02:11;0.52;;;0.50;;
56141;SDS011;42018;48.588;10.836;2022-08-02T16:04:57;1.30;;;0.60;;
56141;SDS011;42018;48.588;10.836;2022-08-02T16:07:43;1.20;;;0.40;;
56141;SDS011;42018;48.588;10.836;2022-08-02T16:10:28;0.75;;;0.32;;
56141;SDS011;42018;48.588;10.836;2022-08-02T16:13:14;1.05;;;0.40;;
56141;SDS011;42018;48.588;10.836;2022-08-02T16:16:21;0.63;;;0.50;;
56141;SDS011;42018;48.588;10.836;2022-08-02T16:19:08;0.88;;;0.40;;
56141;SDS011;42018;48.588;10.836;2022-08-02T16:21:53;1.65;;;0.40;;
56141;SDS011;42018;48.588;10.836;2022-08-02T16:24:40;0.55;;;0.50;;
56141;SDS011;42018;48.588;10.836;2022-08-02T16:27:25;0.90;;;0.43;;
56141;SDS011;42018;48.588;10.836;2022-08-02T16:30:11;0.90;;;0.52;;
56141;SDS011;42018;48.588;10.836;2022-08-02T16:32:56;0.95;;;0.50;;
56141;SDS011;42018;48.588;10.836;2022-08-02T16:35:41;0.82;;;0.60;;
56141;SDS011;42018;48.588;10.836;2022-08-02T16:38:27;2.03;;;0.90;;
56141;SDS011;42018;48.588;10.836;2022-08-02T16:41:12;1.63;;;0.63;;
56141;SDS011;42018;48.588;10.836;2022-08-02T16:43:58;1.35;;;0.70;;
56141;SDS011;42018;48.588;10.836;2022-08-02T16:46:43;0.93;;;0.60;;
56141;SDS011;42018;48.588;10.836;2022-08-02T16:49:29;1.75;;;0.60;;
56141;SDS011;42018;48.588;10.836;2022-08-02T16:52:14;0.75;;;0.30;;
56141;SDS011;42018;48.588;10.836;2022-08-02T16:55:00;0.88;;;0.50;;
56141;SDS011;42018;48.588;10.836;2022-08-02T16:57:45;0.60;;;0.50;;
56141;SDS011;42018;48.588;10.836;2022-08-02T17:00:31;0.77;;;0.60;;
56141;SDS011;42018;48.588;10.836;2022-08-02T17:03:17;1.23;;;0.60;;
56141;SDS011;42018;48.588;10.836;2022-08-02T17:06:02;1.63;;;0.70;;
56141;SDS011;42018;48.588;10.836;2022-08-02T17:08:48;0.60;;;0.43;;
56141;SDS011;42018;48.588;10.836;2022-08-02T17:11:33;0.50;;;0.50;;
56141;SDS011;42018;48.588;10.836;2022-08-02T17:14:19;0.82;;;0.60;;
56141;SDS011;42018;48.588;10.836;2022-08-02T17:17:04;1.58;;;0.50;;
56141;SDS011;42018;48.588;10.836;2022-08-02T17:19:49;0.65;;;0.47;;
56141;SDS011;42018;48.588;10.836;2022-08-02T17:22:35;0.52;;;0.40;;
56141;SDS011;42018;48.588;10.836;2022-08-02T17:25:21;0.93;;;0.60;;